This is the latest recevied weather packets stored in our database for station/object KBPK. If no packets are shown the sender has not sent any weather packets the latest 10 day(s).
| Time | Temp. | Humidity | Pressure | Rain* | Wind** | Luminosity | Snow |
|---|---|---|---|---|---|---|---|
| 1787775207 | 22.78° C | 100% | 1014.9 hPa | - | - | - | - |
| 1787774606 | 23.89° C | 88% | 1014.9 hPa | - | - | - | - |
| 1787774008 | 26.67° C | 94% | 1015.2 hPa | - | - | - | - |
| 1787773405 | 26.67° C | 94% | 1015.2 hPa | - | - | - | - |
| 1787772806 | 26.67° C | 94% | 1015.2 hPa | - | - | - | - |
| 1787772207 | 26.67° C | 94% | 1015.2 hPa | - | - | - | - |
| 1787771603 | 26.67° C | 94% | 1015.2 hPa | - | - | - | - |
| 1787771007 | 26.67° C | 94% | 1015.2 hPa | - | - | - | - |
| 1787770407 | 32.78° C | 59% | 1015.6 hPa | - | - | - | - |
| 1787769806 | 32.78° C | 59% | 1015.6 hPa | - | - | - | - |
| 1787769206 | 32.78° C | 59% | 1015.6 hPa | - | - | - | - |
| 1787768605 | 32.78° C | 59% | 1015.6 hPa | - | - | - | - |
| 1787768004 | 32.78° C | 59% | 1015.6 hPa | - | - | - | - |
| 1787767407 | 32.78° C | 59% | 1015.6 hPa | - | - | - | - |
| 1787766802 | 31.67° C | 62% | 1015.9 hPa | - | - | - | - |
| 1787766204 | 31.67° C | 62% | 1015.9 hPa | - | - | - | - |
| 1787765606 | 31.67° C | 62% | 1015.9 hPa | - | - | - | - |
| 1787765005 | 31.67° C | 62% | 1015.9 hPa | - | - | - | - |
| 1787764404 | 31.67° C | 62% | 1015.9 hPa | - | - | - | - |
| 1787763806 | 31.67° C | 62% | 1015.9 hPa | - | - | - | - |
| 1787763207 | 28.89° C | 74% | 1015.9 hPa | - | - | - | - |
| 1787762604 | 28.89° C | 74% | 1015.9 hPa | - | - | - | - |
| 1787762003 | 28.89° C | 74% | 1015.9 hPa | - | - | - | - |
| 1787761407 | 28.89° C | 74% | 1015.9 hPa | - | - | - | - |
| 1787760804 | 28.89° C | 74% | 1015.9 hPa | - | - | - | - |
* Rain since midnight (hover to see other rain measurements)
** Current wind speed in m/s (hover to see current wind gust speed)